Time;durP1;ratioP1;P1;durP2;ratioP2;P2;SDS_P1;SDS_P2;PMS_P1;PMS_P2;Temp;Humidity;BMP_temperature;BMP_pressure;BME280_temperature;BME280_humidity;BME280_pressure;Samples;Min_cycle;Max_cycle;Signal;HPM_P1;HPM_P2
2021/08/27 00:00:26;;;;;;;1.80;0.85;;;;;;;13.50;84.77;99222.28;2297987;67;22831;-77
2021/08/27 00:03:29;;;;;;;3.50;1.00;;;;;;;13.51;84.36;99224.84;2296463;69;20256;-77
2021/08/27 00:06:32;;;;;;;3.10;1.08;;;;;;;13.52;83.86;99215.28;2296880;69;20167;-77
2021/08/27 00:09:34;;;;;;;2.34;1.01;;;;;;;13.49;84.13;99221.41;2297141;69;20165;-77
2021/08/27 00:12:37;;;;;;;3.95;1.16;;;;;;;13.46;84.42;99224.06;2297067;69;20169;-78
2021/08/27 00:15:40;;;;;;;1.34;0.88;;;;;;;13.49;84.84;99216.22;2295766;67;20568;-77
2021/08/27 00:18:42;;;;;;;4.16;0.90;;;;;;;13.52;84.70;99213.53;2297405;69;20189;-78
2021/08/27 00:21:45;;;;;;;1.17;0.80;;;;;;;13.49;84.58;99217.97;2297862;69;20211;-77
2021/08/27 00:24:47;;;;;;;1.85;0.79;;;;;;;13.47;84.59;99218.00;2297509;69;20165;-78
2021/08/27 00:27:50;;;;;;;6.85;0.88;;;;;;;13.49;84.81;99217.97;2297345;69;20181;-78
2021/08/27 00:30:57;;;;;;;1.60;0.80;;;;;;;13.54;84.85;99216.97;2296285;67;20900;-78
2021/08/27 00:34:00;;;;;;;1.95;1.00;;;;;;;13.59;84.85;99215.13;2297621;69;20182;-78
2021/08/27 00:37:04;;;;;;;1.33;0.84;;;;;;;13.63;84.94;99212.44;2297662;69;20755;-78
2021/08/27 00:40:08;;;;;;;3.25;0.94;;;;;;;13.63;84.75;99215.91;2297377;69;20150;-77
2021/08/27 00:43:12;;;;;;;2.72;0.80;;;;;;;13.66;84.86;99215.88;2297727;69;20183;-77
2021/08/27 00:46:14;;;;;;;2.00;1.02;;;;;;;13.72;85.00;99209.66;2299325;67;20252;-78
2021/08/27 00:49:17;;;;;;;4.71;1.10;;;;;;;13.77;84.90;99213.91;2298962;69;20154;-78
2021/08/27 00:52:20;;;;;;;3.88;1.13;;;;;;;13.82;84.86;99219.91;2297208;69;20145;-78
2021/08/27 00:55:23;;;;;;;2.45;1.16;;;;;;;13.85;84.79;99218.97;2297743;69;20508;-78
2021/08/27 00:58:25;;;;;;;3.91;1.10;;;;;;;13.85;84.93;99218.97;2298667;69;20544;-77
2021/08/27 01:01:29;;;;;;;2.47;0.98;;;;;;;13.86;85.05;99210.25;2296437;67;20326;-77
2021/08/27 01:04:33;;;;;;;3.01;0.90;;;;;;;13.86;85.01;99224.16;2297361;69;20167;-78
2021/08/27 01:07:46;;;;;;;5.09;1.20;;;;;;;13.83;84.96;99219.00;2297309;69;20174;-77
2021/08/27 01:10:58;;;;;;;3.75;1.20;;;;;;;13.85;85.10;99217.22;2297566;69;20175;-78
2021/08/27 01:14:06;;;;;;;2.00;1.15;;;;;;;13.89;84.87;99216.28;2297104;69;20186;-78
2021/08/27 01:17:27;;;;;;;3.28;1.17;;;;;;;13.95;84.72;99217.88;2297895;67;20479;-78
2021/08/27 01:21:18;;;;;;;3.09;1.25;;;;;;;13.98;84.58;99215.19;2298028;69;20976;-78
2021/08/27 01:24:23;;;;;;;3.36;1.21;;;;;;;13.96;84.47;99210.91;2296872;69;20190;-77
2021/08/27 01:27:26;;;;;;;7.51;1.30;;;;;;;14.01;84.72;99209.09;2297213;69;20153;-78
2021/08/27 01:30:48;;;;;;;6.35;1.54;;;;;;;14.05;84.69;99208.13;2296976;69;20261;-78
2021/08/27 01:34:32;;;;;;;4.44;1.50;;;;;;;14.04;84.68;99209.00;2297926;67;20798;-78
2021/08/27 01:37:36;;;;;;;2.84;1.19;;;;;;;14.04;84.55;99209.00;2290735;69;20149;-77
2021/08/27 01:40:42;;;;;;;7.16;1.19;;;;;;;14.02;84.56;99211.66;2297446;69;20150;-78
2021/08/27 01:43:47;;;;;;;4.18;1.30;;;;;;;14.01;84.64;99215.16;2296725;69;20177;-78
2021/08/27 01:46:52;;;;;;;4.36;1.31;;;;;;;14.01;84.71;99216.91;2297104;69;20199;-77
2021/08/27 01:49:55;;;;;;;3.70;1.67;;;;;;;13.99;84.58;99224.75;2296639;69;20250;-78
2021/08/27 01:52:59;;;;;;;5.75;1.74;;;;;;;13.99;84.04;99214.31;2297606;69;20949;-78
2021/08/27 01:56:03;;;;;;;3.65;1.70;;;;;;;13.97;84.22;99216.09;2297185;69;20602;-78
2021/08/27 01:59:07;;;;;;;4.51;1.75;;;;;;;13.95;84.16;99220.50;2295839;69;20150;-78
2021/08/27 02:02:12;;;;;;;3.80;1.86;;;;;;;13.90;84.30;99223.22;2296988;67;21325;-78
2021/08/27 02:05:16;;;;;;;4.91;1.84;;;;;;;13.88;84.59;99219.78;2299763;69;20178;-77
2021/08/27 02:08:21;;;;;;;4.65;1.65;;;;;;;13.81;84.98;99222.53;2298793;69;20624;-78
2021/08/27 02:11:26;;;;;;;5.19;1.89;;;;;;;13.72;85.25;99220.97;2300167;69;20604;-78
2021/08/27 02:14:29;;;;;;;7.50;2.15;;;;;;;13.68;85.37;99219.31;2299756;69;20226;-78
2021/08/27 02:17:32;;;;;;;4.69;1.63;;;;;;;13.65;85.45;99231.56;2299873;67;25748;-78
2021/08/27 02:20:36;;;;;;;5.07;1.61;;;;;;;13.57;85.55;99223.88;2299138;69;21004;-78
2021/08/27 02:23:44;;;;;;;3.79;1.45;;;;;;;13.52;85.71;99223.97;2299700;69;20771;-78
2021/08/27 02:26:49;;;;;;;5.43;1.70;;;;;;;13.44;85.64;99214.56;2298552;69;20250;-77
2021/08/27 02:29:55;;;;;;;6.18;1.94;;;;;;;13.33;85.82;99219.97;2299249;69;20266;-78
2021/08/27 02:33:00;;;;;;;3.16;1.50;;;;;;;13.25;85.81;99219.25;2297596;67;21572;-77
2021/08/27 02:36:05;;;;;;;4.40;1.85;;;;;;;13.18;85.70;99222.88;2298556;69;20153;-78
2021/08/27 02:39:08;;;;;;;8.14;1.88;;;;;;;13.11;85.63;99222.09;2299654;69;20301;-77
2021/08/27 02:42:12;;;;;;;4.30;1.91;;;;;;;13.00;85.82;99235.28;2299565;69;20161;-77
2021/08/27 02:45:15;;;;;;;3.74;1.40;;;;;;;12.91;85.92;99238.03;2299546;69;20235;-77
2021/08/27 02:48:17;;;;;;;3.67;1.51;;;;;;;12.86;86.19;99236.41;2293780;67;20174;-77
2021/08/27 02:51:27;;;;;;;5.16;1.51;;;;;;;12.79;86.18;99253.03;2292956;69;20533;-77
2021/08/27 02:54:34;;;;;;;4.65;1.80;;;;;;;12.66;86.35;99255.81;2291657;69;20180;-77
2021/08/27 02:57:44;;;;;;;5.29;1.71;;;;;;;12.61;86.37;99254.16;2293146;69;20170;-78
2021/08/27 03:00:54;;;;;;;3.55;1.61;;;;;;;12.54;86.49;99263.78;2292379;67;20880;-77
2021/08/27 03:04:20;;;;;;;5.44;2.76;;;;;;;12.51;86.68;99258.63;2291724;69;20180;-78
2021/08/27 03:07:25;;;;;;;3.88;1.73;;;;;;;12.46;86.78;99255.25;2291533;69;20176;-78
2021/08/27 03:10:37;;;;;;;3.46;1.99;;;;;;;12.44;86.75;99264.81;2291235;69;20158;-78
2021/08/27 03:13:45;;;;;;;5.22;2.44;;;;;;;12.35;86.82;99259.72;2290646;69;20162;-78
2021/08/27 03:16:51;;;;;;;3.00;2.11;;;;;;;12.30;87.07;99261.53;2293494;67;20158;-78
2021/08/27 03:20:08;;;;;;;4.10;2.06;;;;;;;12.25;87.06;99259.00;2297160;69;20164;-78
2021/08/27 03:23:14;;;;;;;3.50;2.14;;;;;;;12.21;87.28;99249.53;2298574;69;20673;-77
2021/08/27 03:26:30;;;;;;;4.25;2.01;;;;;;;12.24;87.19;99251.22;2297866;69;20150;-77
2021/08/27 03:29:44;;;;;;;3.24;2.06;;;;;;;12.20;86.93;99241.72;2298838;69;20845;-78
2021/08/27 03:32:50;;;;;;;5.28;2.25;;;;;;;12.17;86.88;99245.22;2296258;67;20330;-77
2021/08/27 03:35:55;;;;;;;3.41;2.06;;;;;;;12.15;86.75;99238.31;2298060;69;20167;-78
2021/08/27 03:38:59;;;;;;;4.69;2.38;;;;;;;12.10;86.58;99254.84;2297375;69;20195;-78
2021/08/27 03:42:03;;;;;;;4.61;2.85;;;;;;;12.04;86.13;99254.94;2298359;69;20142;-78
2021/08/27 03:45:08;;;;;;;4.29;2.14;;;;;;;12.00;86.00;99261.03;2296747;69;20183;-78
2021/08/27 03:48:11;;;;;;;3.89;2.08;;;;;;;11.96;86.14;99263.72;2297168;67;21523;-78
2021/08/27 03:51:15;;;;;;;4.72;1.94;;;;;;;11.88;86.30;99265.56;2297580;69;20150;-77
2021/08/27 03:54:19;;;;;;;3.09;2.25;;;;;;;11.78;86.56;99265.66;2297785;69;20183;-78
2021/08/27 03:57:24;;;;;;;4.01;2.60;;;;;;;11.66;86.78;99263.13;2292752;69;21087;-78
2021/08/27 04:00:27;;;;;;;3.72;2.20;;;;;;;11.61;87.13;99261.47;2297590;67;21645;-78
2021/08/27 04:03:30;;;;;;;2.67;2.28;;;;;;;11.60;87.19;99264.94;2297481;69;20690;-78
2021/08/27 04:06:33;;;;;;;4.51;3.00;;;;;;;11.57;87.23;99268.44;2298853;69;20230;-78
2021/08/27 04:09:36;;;;;;;4.31;2.76;;;;;;;11.55;87.41;99266.75;2297370;69;20219;-77
2021/08/27 04:12:40;;;;;;;5.28;3.20;;;;;;;11.51;87.47;99273.72;2297487;69;20158;-78
2021/08/27 04:15:43;;;;;;;3.44;3.14;;;;;;;11.50;87.42;99272.00;2297454;66;20180;-78
2021/08/27 04:18:45;;;;;;;5.91;3.67;;;;;;;11.51;87.21;99278.94;2297736;69;20211;-78
2021/08/27 04:21:48;;;;;;;3.50;3.09;;;;;;;11.54;86.84;99275.44;2297851;69;20222;-78
2021/08/27 04:24:51;;;;;;;3.35;3.03;;;;;;;11.52;86.45;99275.44;2296926;69;20157;-80
2021/08/27 04:27:53;;;;;;;5.90;3.59;;;;;;;11.52;86.35;99279.78;2297154;69;20145;-78
2021/08/27 04:30:56;;;;;;;5.88;3.21;;;;;;;11.50;86.25;99274.59;2296836;67;21502;-79
2021/08/27 04:33:58;;;;;;;5.86;3.41;;;;;;;11.42;86.08;99266.00;2297165;69;20256;-78
2021/08/27 04:37:02;;;;;;;5.16;3.15;;;;;;;11.39;86.34;99261.69;2298899;69;20170;-78
2021/08/27 04:40:05;;;;;;;4.60;3.42;;;;;;;11.35;86.52;99266.94;2296653;69;20294;-78
2021/08/27 04:43:07;;;;;;;3.63;3.05;;;;;;;11.33;86.70;99281.69;2296760;69;20189;-78
2021/08/27 04:46:11;;;;;;;3.88;3.26;;;;;;;11.35;86.47;99292.94;2295987;67;20295;-79
2021/08/27 04:49:14;;;;;;;6.13;3.49;;;;;;;11.37;86.71;99297.25;2298048;69;20760;-76
2021/08/27 04:52:17;;;;;;;6.09;3.74;;;;;;;11.38;86.69;99292.91;2296861;69;20282;-76
2021/08/27 04:55:19;;;;;;;5.89;3.45;;;;;;;11.37;86.57;99297.25;2297277;69;20166;-76
2021/08/27 04:58:25;;;;;;;7.00;3.24;;;;;;;11.35;86.61;99298.16;2297518;69;20157;-77
2021/08/27 05:01:27;;;;;;;4.79;3.46;;;;;;;11.33;86.80;99305.97;2296078;67;23053;-77
2021/08/27 05:04:30;;;;;;;3.50;2.99;;;;;;;11.30;86.95;99305.97;2297639;69;20195;-76
2021/08/27 05:07:33;;;;;;;5.97;3.53;;;;;;;11.28;87.18;99307.72;2297093;69;20215;-76
2021/08/27 05:10:36;;;;;;;5.14;3.42;;;;;;;11.29;87.37;99308.56;2296914;69;20179;-76
2021/08/27 05:13:38;;;;;;;3.94;3.36;;;;;;;11.29;87.64;99311.19;2297755;69;20624;-76
2021/08/27 05:16:41;;;;;;;10.31;3.76;;;;;;;11.30;87.92;99315.50;2295699;67;23475;-76
2021/08/27 05:19:44;;;;;;;5.78;3.61;;;;;;;11.32;88.06;99314.63;2294586;69;20210;-75
2021/08/27 05:22:46;;;;;;;4.56;3.63;;;;;;;11.36;88.29;99324.13;2294316;69;20298;-76
2021/08/27 05:25:49;;;;;;;5.81;4.09;;;;;;;11.41;88.51;99324.94;2293628;69;20215;-74
2021/08/27 05:28:52;;;;;;;5.39;3.70;;;;;;;11.47;88.41;99329.22;2293322;69;20171;-74
2021/08/27 05:31:54;;;;;;;5.55;3.40;;;;;;;11.50;88.30;99332.66;2291995;67;20316;-74
2021/08/27 05:34:57;;;;;;;4.30;3.42;;;;;;;11.53;88.46;99336.97;2294014;69;20271;-74
2021/08/27 05:38:00;;;;;;;4.88;3.60;;;;;;;11.62;88.25;99341.22;2293274;69;20598;-74
2021/08/27 05:41:03;;;;;;;5.78;3.54;;;;;;;11.67;88.13;99344.63;2293737;69;20187;-74
2021/08/27 05:44:06;;;;;;;3.85;3.45;;;;;;;11.76;88.01;99332.41;2293021;69;20231;-74
2021/08/27 05:47:09;;;;;;;6.96;3.70;;;;;;;11.85;87.89;99344.50;2292912;67;21224;-74
2021/08/27 05:50:14;;;;;;;5.24;3.46;;;;;;;11.99;87.61;99349.53;2295341;69;20141;-74
2021/08/27 05:53:16;;;;;;;5.44;3.08;;;;;;;12.20;87.02;99348.44;2296750;69;20174;-74
2021/08/27 05:56:19;;;;;;;5.66;3.56;;;;;;;12.43;86.56;99354.25;2291323;69;20145;-75
2021/08/27 05:59:22;;;;;;;4.74;3.41;;;;;;;12.68;85.82;99349.56;2297295;69;20142;-75
2021/08/27 06:02:24;;;;;;;5.70;3.47;;;;;;;12.96;84.62;99353.53;2296520;67;21454;-75
2021/08/27 06:05:27;;;;;;;5.75;3.01;;;;;;;13.30;83.27;99356.50;2296952;69;20177;-75
2021/08/27 06:08:30;;;;;;;6.44;3.29;;;;;;;13.71;81.08;99346.25;2296947;69;20887;-75
2021/08/27 06:11:37;;;;;;;5.47;3.10;;;;;;;14.08;79.43;99354.25;2297333;69;20153;-76
2021/08/27 06:14:40;;;;;;;7.93;3.05;;;;;;;14.42;78.53;99362.28;2296918;69;20205;-75
2021/08/27 06:17:42;;;;;;;6.18;2.79;;;;;;;14.73;77.28;99359.94;2297890;67;22350;-75
2021/08/27 06:20:47;;;;;;;4.59;2.46;;;;;;;15.05;75.17;99364.41;2296837;69;20747;-75
2021/08/27 06:23:52;;;;;;;7.34;2.96;;;;;;;15.34;74.12;99364.59;2297930;69;20185;-75
2021/08/27 06:26:55;;;;;;;7.18;3.00;;;;;;;15.68;72.79;99375.13;2299050;69;20219;-75
2021/08/27 06:29:59;;;;;;;7.94;2.89;;;;;;;16.01;71.02;99373.41;2296699;69;20175;-75
2021/08/27 06:33:02;;;;;;;5.90;2.94;;;;;;;16.25;69.82;99373.63;2303530;67;21310;-75
2021/08/27 06:36:05;;;;;;;5.29;3.29;;;;;;;15.94;69.99;99379.69;2306370;69;20176;-75
2021/08/27 06:39:07;;;;;;;6.22;3.01;;;;;;;15.70;70.09;99382.94;2305250;69;20141;-75
2021/08/27 06:42:10;;;;;;;6.95;3.56;;;;;;;15.57;71.30;99368.41;2305167;69;20205;-75
2021/08/27 06:45:13;;;;;;;5.90;3.25;;;;;;;15.45;72.14;99380.06;2304097;69;20222;-75
2021/08/27 06:48:15;;;;;;;9.59;3.28;;;;;;;16.06;71.53;99380.28;2304675;66;30588;-75
2021/08/27 06:51:18;;;;;;;7.19;3.33;;;;;;;16.58;69.63;99380.53;2303352;69;20218;-76
2021/08/27 06:54:21;;;;;;;6.66;2.70;;;;;;;17.07;67.87;99384.38;2305356;69;20203;-76
2021/08/27 06:57:23;;;;;;;7.13;3.11;;;;;;;17.00;66.36;99382.81;2305752;69;20222;-76
2021/08/27 07:00:26;;;;;;;6.82;2.75;;;;;;;17.14;65.51;99387.66;2303998;67;20821;-76
2021/08/27 07:03:29;;;;;;;5.25;3.08;;;;;;;17.43;65.51;99382.34;2304675;69;20192;-76
2021/08/27 07:06:32;;;;;;;4.14;2.59;;;;;;;17.65;64.33;99389.50;2304959;69;20148;-76
2021/08/27 07:09:34;;;;;;;6.66;2.76;;;;;;;17.85;63.36;99384.47;2307214;69;20171;-76
2021/08/27 07:12:37;;;;;;;7.44;2.83;;;;;;;18.12;62.43;99394.00;2304366;69;20243;-76
2021/08/27 07:15:40;;;;;;;3.89;2.21;;;;;;;18.01;61.49;99405.81;2304020;69;21114;-76
2021/08/27 07:18:43;;;;;;;11.02;2.79;;;;;;;18.16;61.09;99407.94;2305407;69;20165;-75
2021/08/27 07:21:46;;;;;;;6.44;2.89;;;;;;;18.21;60.99;99408.63;2304521;69;20164;-76
2021/08/27 07:24:49;;;;;;;7.34;2.90;;;;;;;18.05;60.23;99403.03;2306394;69;20157;-75
2021/08/27 07:27:51;;;;;;;7.05;2.30;;;;;;;18.11;60.18;99402.81;2305473;69;20170;-77
2021/08/27 07:30:54;;;;;;;7.35;3.15;;;;;;;18.32;60.21;99400.38;2304880;67;20459;-77
2021/08/27 07:33:56;;;;;;;7.80;2.91;;;;;;;18.45;59.16;99411.28;2307222;69;20209;-77
2021/08/27 07:36:59;;;;;;;5.00;2.35;;;;;;;18.42;59.32;99413.09;2306270;69;20145;-77
2021/08/27 07:40:02;;;;;;;5.18;2.72;;;;;;;18.27;60.23;99412.78;2308226;69;20198;-77
2021/08/27 07:43:04;;;;;;;10.27;3.00;;;;;;;18.06;61.19;99410.00;2307253;69;20260;-77
2021/08/27 07:46:07;;;;;;;7.76;2.60;;;;;;;18.03;61.35;99407.50;2305344;67;22943;-77
2021/08/27 07:49:09;;;;;;;4.95;2.13;;;;;;;17.96;61.69;99411.25;2307443;69;20174;-77
2021/08/27 07:52:12;;;;;;;7.89;2.20;;;;;;;17.83;60.92;99412.56;2307512;69;20184;-77
2021/08/27 07:55:15;;;;;;;9.57;3.17;;;;;;;17.73;61.13;99411.13;2307026;69;20157;-77
2021/08/27 07:58:18;;;;;;;5.78;2.04;;;;;;;17.70;60.90;99412.09;2306278;69;20160;-77
2021/08/27 08:01:20;;;;;;;4.74;2.75;;;;;;;17.61;60.78;99415.00;2304762;69;20661;-78
2021/08/27 08:04:24;;;;;;;6.97;2.09;;;;;;;17.66;60.79;99417.47;2305513;69;20397;-78
2021/08/27 08:07:26;;;;;;;4.55;1.73;;;;;;;17.70;61.01;99414.72;2307709;69;20189;-78
2021/08/27 08:10:29;;;;;;;6.28;1.70;;;;;;;17.77;60.54;99415.38;2306456;69;20145;-77
2021/08/27 08:13:31;;;;;;;3.01;1.64;;;;;;;17.84;61.20;99416.91;2305510;69;21267;-77
2021/08/27 08:16:34;;;;;;;4.47;1.50;;;;;;;17.96;60.48;99416.50;2306729;69;20153;-76
2021/08/27 08:19:37;;;;;;;6.16;2.13;;;;;;;17.91;58.56;99415.78;2306416;69;20174;-76
2021/08/27 08:22:40;;;;;;;5.72;1.85;;;;;;;18.04;59.32;99418.84;2305858;69;20625;-76
2021/08/27 08:25:42;;;;;;;4.75;2.04;;;;;;;18.28;58.89;99422.38;2304961;69;20272;-76
2021/08/27 08:28:46;;;;;;;4.95;2.35;;;;;;;18.45;58.20;99417.38;2305794;69;20145;-77
2021/08/27 08:31:51;;;;;;;4.39;1.85;;;;;;;18.42;57.60;99422.75;2303607;67;20149;-77
2021/08/27 08:34:53;;;;;;;4.64;2.08;;;;;;;18.49;58.40;99416.41;2306306;69;20161;-77
2021/08/27 08:37:56;;;;;;;6.66;2.16;;;;;;;18.39;57.51;99421.09;2305823;69;20149;-77
2021/08/27 08:40:59;;;;;;;6.91;2.20;;;;;;;18.57;57.54;99424.00;2307380;69;20157;-77
2021/08/27 08:44:04;;;;;;;3.99;1.63;;;;;;;19.10;57.34;99416.75;2305888;69;20169;-77
2021/08/27 08:47:08;;;;;;;3.65;2.29;;;;;;;19.69;55.74;99433.75;2305615;66;21073;-77
2021/08/27 08:50:11;;;;;;;4.80;1.94;;;;;;;19.67;54.09;99431.19;2305671;69;20174;-75
2021/08/27 08:53:16;;;;;;;7.78;1.98;;;;;;;19.80;55.05;99434.19;2306301;69;20178;-75
2021/08/27 08:56:20;;;;;;;3.20;1.80;;;;;;;20.07;54.72;99434.78;2305451;69;20148;-77
2021/08/27 08:59:23;;;;;;;4.36;1.67;;;;;;;20.32;53.91;99438.09;2307552;69;20149;-77
2021/08/27 09:02:29;;;;;;;4.95;1.80;;;;;;;20.75;53.58;99428.31;2300818;67;21467;-76
2021/08/27 09:05:32;;;;;;;5.68;1.83;;;;;;;21.04;51.20;99433.13;2306433;69;20173;-75
2021/08/27 09:08:38;;;;;;;5.75;1.86;;;;;;;21.41;51.54;99419.06;2308574;69;20166;-78
2021/08/27 09:11:40;;;;;;;3.46;2.01;;;;;;;21.48;49.68;99416.97;2307683;69;20530;-78
2021/08/27 09:14:55;;;;;;;4.64;1.89;;;;;;;21.40;49.67;99429.69;2307767;69;20879;-77
2021/08/27 09:18:04;;;;;;;7.04;2.00;;;;;;;21.26;49.51;99427.72;2306136;67;20178;-77
2021/08/27 09:21:46;;;;;;;4.54;1.65;;;;;;;21.10;49.67;99427.53;2306688;69;20145;-77
2021/08/27 09:25:05;;;;;;;3.39;1.71;;;;;;;21.31;49.92;99438.03;2297106;69;20203;-76
2021/08/27 09:28:17;;;;;;;7.10;1.60;;;;;;;21.27;48.98;99432.06;2305384;69;20157;-75
2021/08/27 09:31:20;;;;;;;4.35;1.98;;;;;;;21.02;50.63;99429.69;2303142;67;124104;-76
2021/08/27 09:34:29;;;;;;;4.64;1.79;;;;;;;20.79;51.36;99430.72;2304196;69;20179;-76
2021/08/27 09:37:36;;;;;;;7.06;2.40;;;;;;;20.55;51.85;99433.63;2305963;69;20149;-76
2021/08/27 09:40:48;;;;;;;4.38;1.90;;;;;;;20.41;52.88;99436.88;2303124;69;20242;-76
2021/08/27 09:43:55;;;;;;;6.04;2.30;;;;;;;20.10;51.29;99432.88;2304477;69;20175;-76
2021/08/27 09:47:06;;;;;;;4.34;1.91;;;;;;;20.13;53.19;99432.75;2302612;67;25264;-76
2021/08/27 09:50:23;;;;;;;4.20;1.50;;;;;;;20.64;51.61;99434.06;2305825;69;20614;-76
2021/08/27 09:53:40;;;;;;;3.53;1.27;;;;;;;21.24;51.23;99429.56;2304208;69;20206;-76
2021/08/27 09:56:48;;;;;;;4.64;1.20;;;;;;;21.81;48.90;99427.66;2305157;69;20144;-78
2021/08/27 09:59:51;;;;;;;2.16;1.20;;;;;;;22.17;47.12;99427.63;2303346;69;20974;-76
2021/08/27 10:02:59;;;;;;;3.51;1.50;;;;;;;22.23;46.23;99419.38;2303492;67;22740;-77
2021/08/27 10:06:03;;;;;;;2.49;1.10;;;;;;;22.34;47.33;99431.19;2305212;69;20161;-76
2021/08/27 10:09:07;;;;;;;2.56;0.86;;;;;;;22.25;46.05;99429.88;2305591;69;20191;-76
2021/08/27 10:12:11;;;;;;;1.79;0.90;;;;;;;22.02;46.22;99429.22;2303246;69;20594;-76
2021/08/27 10:15:13;;;;;;;1.09;0.77;;;;;;;21.79;46.06;99421.59;2304534;69;20176;-76
2021/08/27 10:18:16;;;;;;;1.95;0.85;;;;;;;21.65;47.10;99426.72;2304080;67;21646;-76
2021/08/27 10:21:19;;;;;;;1.50;0.76;;;;;;;21.47;47.98;99423.19;2303921;69;20149;-76
2021/08/27 10:24:21;;;;;;;3.56;0.86;;;;;;;21.31;48.81;99428.34;2304252;69;20190;-76
2021/08/27 10:27:24;;;;;;;3.74;0.88;;;;;;;21.67;48.12;99416.91;2299819;69;20193;-76
2021/08/27 10:30:49;;;;;;;2.51;0.77;;;;;;;22.02;46.80;99423.94;2299163;66;21279;-77
2021/08/27 10:33:56;;;;;;;1.54;0.71;;;;;;;22.04;46.29;99426.50;2302790;69;20188;-76
2021/08/27 10:36:59;;;;;;;1.52;0.80;;;;;;;22.23;46.50;99415.88;2299751;69;20145;-77
2021/08/27 10:40:02;;;;;;;2.06;0.61;;;;;;;22.80;46.71;99416.38;2304008;69;20145;-75
2021/08/27 10:43:05;;;;;;;1.21;0.52;;;;;;;22.67;45.04;99413.56;2305899;69;20149;-77
2021/08/27 10:46:08;;;;;;;4.07;1.00;;;;;;;22.52;45.87;99417.00;2304884;67;20616;-75
2021/08/27 10:49:21;;;;;;;1.56;0.60;;;;;;;22.28;45.61;99413.88;2305870;69;20153;-76
2021/08/27 10:52:37;;;;;;;2.16;0.73;;;;;;;22.04;46.33;99423.84;2305742;69;20137;-77
2021/08/27 10:55:40;;;;;;;1.74;0.80;;;;;;;21.73;46.32;99410.50;2305772;69;20231;-77
2021/08/27 10:58:47;;;;;;;2.88;1.00;;;;;;;21.50;46.90;99411.59;2307329;69;20152;-78
2021/08/27 11:02:10;;;;;;;5.00;1.34;;;;;;;21.29;47.67;99421.41;2306585;66;20872;-79
2021/08/27 11:05:31;;;;;;;6.56;1.10;;;;;;;21.40;47.98;99401.50;2307528;69;21010;-77
2021/08/27 11:08:34;;;;;;;2.26;0.80;;;;;;;21.49;48.51;99408.09;2309852;69;20161;-77
2021/08/27 11:11:36;;;;;;;5.96;1.00;;;;;;;21.57;47.86;99403.31;2314040;69;20234;-83
2021/08/27 11:14:44;;;;;;;3.53;0.77;;;;;;;21.56;48.61;99404.25;2312943;69;20172;-79
2021/08/27 11:18:18;;;;;;;2.61;0.80;;;;;;;21.37;47.79;99408.72;2307863;67;20869;-77
2021/08/27 11:21:35;;;;;;;6.79;1.14;;;;;;;21.44;48.16;99398.69;2307838;69;20157;-73
2021/08/27 11:24:42;;;;;;;5.16;0.76;;;;;;;21.51;48.59;99410.66;2308702;69;20203;-76
2021/08/27 11:28:17;;;;;;;4.86;0.90;;;;;;;21.47;48.52;99411.75;2313259;69;20153;-83
2021/08/27 11:31:19;;;;;;;2.29;0.68;;;;;;;21.44;49.29;99411.91;2313856;67;20896;-83
2021/08/27 11:34:24;;;;;;;2.75;0.60;;;;;;;21.21;48.95;99407.72;2317892;69;20133;-82
2021/08/27 11:37:38;;;;;;;3.78;0.73;;;;;;;21.18;50.19;99413.97;2316473;69;20168;-83
2021/08/27 11:40:41;;;;;;;3.20;0.76;;;;;;;21.18;50.77;99418.38;2314258;69;20182;-82
2021/08/27 11:43:46;;;;;;;4.76;0.80;;;;;;;21.33;51.03;99413.25;2318638;69;20234;-83
2021/08/27 11:46:50;;;;;;;3.34;0.68;;;;;;;21.47;50.38;99411.75;2316301;66;38930;-82
2021/08/27 11:49:58;;;;;;;3.14;0.70;;;;;;;21.59;50.78;99408.53;2315452;69;20156;-83
2021/08/27 11:53:02;;;;;;;6.63;0.70;;;;;;;21.56;50.30;99411.31;2315535;69;20149;-83
2021/08/27 11:56:05;;;;;;;3.61;0.90;;;;;;;21.47;50.18;99409.97;2313568;69;20153;-82
2021/08/27 11:59:08;;;;;;;2.94;0.79;;;;;;;21.35;48.82;99411.41;2314007;69;20174;-81
2021/08/27 12:02:20;;;;;;;5.79;1.05;;;;;;;21.29;49.70;99410.84;2313612;66;21083;-85
2021/08/27 12:05:24;;;;;;;2.35;0.88;;;;;;;21.33;49.25;99407.13;2315505;69;20182;-77
2021/08/27 12:08:27;;;;;;;8.61;1.23;;;;;;;21.37;49.44;99408.72;2313717;69;20145;-82
2021/08/27 12:11:31;;;;;;;3.01;1.10;;;;;;;21.32;49.64;99403.63;2314635;69;20149;-82
2021/08/27 12:14:47;;;;;;;4.51;1.20;;;;;;;21.18;48.52;99413.97;2314881;69;20181;-81
2021/08/27 12:17:55;;;;;;;3.21;0.99;;;;;;;21.16;50.22;99418.47;2314907;67;20352;-84
2021/08/27 12:20:58;;;;;;;5.38;0.88;;;;;;;21.21;48.56;99415.63;2310174;69;21034;-82
2021/08/27 12:24:09;;;;;;;2.16;0.64;;;;;;;21.18;48.37;99416.59;2314783;69;20171;-82
2021/08/27 12:27:12;;;;;;;3.69;0.74;;;;;;;21.12;48.68;99411.63;2316746;69;20179;-82
2021/08/27 12:30:16;;;;;;;1.73;0.68;;;;;;;21.10;49.00;99416.97;2315530;69;20149;-82
2021/08/27 12:33:19;;;;;;;3.15;0.57;;;;;;;20.98;49.98;99424.59;2311209;69;20207;-81
2021/08/27 12:36:22;;;;;;;4.86;0.70;;;;;;;20.88;50.24;99420.69;2312376;69;20468;-82
2021/08/27 12:39:25;;;;;;;2.85;0.76;;;;;;;20.88;50.02;99415.41;2314372;69;20178;-81
2021/08/27 12:42:27;;;;;;;1.27;0.59;;;;;;;20.95;49.68;99420.31;2315156;69;21212;-82
2021/08/27 12:45:56;;;;;;;4.79;0.56;;;;;;;20.98;49.83;99420.19;2316790;66;21144;-81
2021/08/27 12:49:17;;;;;;;1.83;0.40;;;;;;;21.36;50.56;99417.53;2313313;69;20196;-81
2021/08/27 12:52:19;;;;;;;2.09;0.43;;;;;;;21.62;48.18;99426.88;2313511;69;20157;-82
2021/08/27 12:55:22;;;;;;;1.14;0.30;;;;;;;22.03;48.12;99420.38;2314630;69;20181;-82
2021/08/27 12:58:32;;;;;;;1.09;0.31;;;;;;;22.11;47.09;99412.09;2316362;69;20190;-82
2021/08/27 13:01:34;;;;;;;1.91;0.35;;;;;;;22.05;46.64;99415.03;2314781;69;20257;-84
2021/08/27 13:04:46;;;;;;;0.95;0.29;;;;;;;22.21;45.91;99409.81;2320766;69;20281;-82
2021/08/27 13:07:50;;;;;;;1.19;0.40;;;;;;;22.45;46.19;99410.34;2315846;69;20191;-83
2021/08/27 13:10:57;;;;;;;1.30;0.30;;;;;;;22.43;45.15;99412.19;2314407;69;20141;-83
2021/08/27 13:14:14;;;;;;;3.96;0.50;;;;;;;22.59;46.74;99419.22;2315549;69;20187;-83
2021/08/27 13:17:18;;;;;;;0.70;0.45;;;;;;;22.78;46.29;99408.50;2317064;67;20172;-82
2021/08/27 13:20:26;;;;;;;0.95;0.38;;;;;;;23.01;45.58;99403.81;2318818;69;20169;-82
2021/08/27 13:23:29;;;;;;;2.81;0.40;;;;;;;22.89;44.38;99406.19;2316015;69;20182;-82
2021/08/27 13:26:33;;;;;;;1.38;0.76;;;;;;;22.60;45.28;99404.22;2315300;69;20160;-82
2021/08/27 13:29:35;;;;;;;1.17;0.40;;;;;;;22.26;45.55;99399.84;2319816;69;20173;-81
2021/08/27 13:32:42;;;;;;;2.34;0.40;;;;;;;22.01;46.62;99395.78;2314923;67;22352;-81
2021/08/27 13:35:45;;;;;;;1.33;0.46;;;;;;;21.89;46.35;99387.63;2322948;69;20149;-82
2021/08/27 13:38:48;;;;;;;3.97;0.50;;;;;;;21.84;47.74;99384.34;2315714;69;20125;-82
2021/08/27 13:41:51;;;;;;;2.36;0.40;;;;;;;21.76;47.75;99386.53;2315774;69;20177;-81
2021/08/27 13:44:53;;;;;;;2.63;0.45;;;;;;;21.83;47.57;99383.50;2313464;69;20165;-80
2021/08/27 13:47:57;;;;;;;2.36;0.50;;;;;;;21.89;48.04;99377.91;2308962;66;20748;-78
2021/08/27 13:51:00;;;;;;;1.33;0.31;;;;;;;22.09;48.94;99386.66;2310095;69;20126;-83
2021/08/27 13:54:05;;;;;;;1.29;0.40;;;;;;;22.18;48.13;99378.22;2312080;69;20160;-83
2021/08/27 13:57:08;;;;;;;1.08;0.40;;;;;;;22.44;48.44;99380.38;2308202;69;20178;-82
2021/08/27 14:00:13;;;;;;;1.48;0.47;;;;;;;22.46;46.67;99382.94;2313984;69;20168;-82
2021/08/27 14:03:16;;;;;;;1.13;0.50;;;;;;;22.22;47.08;99377.97;2314446;66;20821;-82
2021/08/27 14:06:19;;;;;;;2.45;0.50;;;;;;;22.01;47.75;99369.34;2313729;69;20221;-84
2021/08/27 14:09:21;;;;;;;4.96;0.38;;;;;;;21.79;47.40;99366.09;2311353;69;20226;-81
2021/08/27 14:12:24;;;;;;;0.96;0.30;;;;;;;21.61;48.15;99374.94;2307215;69;20145;-78
2021/08/27 14:15:27;;;;;;;1.33;0.30;;;;;;;21.59;49.40;99356.53;2305781;67;20729;-78
2021/08/27 14:18:30;;;;;;;3.36;0.50;;;;;;;21.78;49.82;99356.44;2305288;69;20643;-78
2021/08/27 14:21:33;;;;;;;1.23;0.30;;;;;;;22.15;49.66;99352.81;2305447;69;20730;-78
2021/08/27 14:24:35;;;;;;;0.86;0.31;;;;;;;22.22;48.35;99361.25;2307712;69;20870;-78
2021/08/27 14:27:39;;;;;;;1.89;0.40;;;;;;;22.04;47.04;99355.09;2305650;69;20177;-78
2021/08/27 14:30:42;;;;;;;1.04;0.30;;;;;;;22.09;48.30;99352.28;2305988;67;21033;-78
2021/08/27 14:33:52;;;;;;;2.59;0.30;;;;;;;22.27;48.10;99356.59;2307389;69;20554;-81